logo
Rechercher aéroport 
image banner adimage banner adimage banner ad
image banner ad

WARE - Jember/Noto Hadinegoro

Situé à Jember, Indonesia

ICAO - , IATA - JBB

Données fournies par Airmate  

Information générale

Coordonnées: S8°14'36" E113°41'46"
Élévation : 264 feet MSL.
 
Voir autres Aéroports à Jawa Timur

Données opérationnelles

Special qualification required
Heure actuelle UTC:
Heure actuelle locale:
Météo à : - ( 0 km )
METAR: KLLJ 281902Z AUTO 10009G32KT 10SM FEW070 SCT090 BKN120 22/01 A3005 RMK AO2 WSHFT 1842 RAE1858 P0000 T02170006
Voir NOTAMs / SUP AIP / TFR affectant cet aéroport [VIEW]
Fréquences de communication: [VIEW]

Pistes:

Identifiant RWYQFULongueur (ft)Largeur (ft)SurfaceLDA (ft)
0214°539798UNK
20194°539798UNK

Coordonnées de l'aéroport

Adresse: Jember Indonesia

Vue satellite de WARE